Time;durP1;ratioP1;P1;durP2;ratioP2;P2;SDS_P1;SDS_P2;PMS_P1;PMS_P2;Temp;Humidity;BMP_temperature;BMP_pressure;BME280_temperature;BME280_humidity;BME280_pressure;Samples;Min_cycle;Max_cycle;Signal;HPM_P1;HPM_P2
2022/01/07 00:00:22;;;;;;;30.60;20.70;;;0.90;1.00;217.30;157463.00;;;;5039457;28;20472;-79
2022/01/07 00:02:56;;;;;;;30.97;19.70;;;0.80;1.00;1.60;66667.00;;;;5032114;28;20460;-78
2022/01/07 00:05:30;;;;;;;27.30;19.17;;;0.70;1.00;217.30;157454.00;;;;5036893;28;20441;-79
2022/01/07 00:07:59;;;;;;;30.80;18.23;;;0.60;1.00;1.90;100713.00;;;;5038861;28;20450;-79
2022/01/07 00:10:28;;;;;;;26.47;18.80;;;0.80;1.00;1.90;66667.00;;;;5029554;28;20473;-81
2022/01/07 00:12:58;;;;;;;21.83;17.93;;;0.90;1.00;1.80;66662.00;;;;5028190;28;20449;-81
2022/01/07 00:15:26;;;;;;;26.67;18.60;;;0.90;1.00;1.80;66662.00;;;;5018646;28;20460;-76
2022/01/07 00:17:58;;;;;;;31.83;17.43;;;0.90;1.00;1.80;100729.00;;;;5017659;28;21002;-76
2022/01/07 00:20:27;;;;;;;25.03;18.40;;;0.90;1.00;1.80;100742.00;;;;5017986;28;21083;-75
2022/01/07 00:22:56;;;;;;;28.80;17.40;;;0.80;1.00;1.90;100744.00;;;;5020302;28;20457;-78
2022/01/07 00:25:25;;;;;;;25.40;18.00;;;0.90;1.00;1.90;100748.00;;;;5019132;28;20457;-77
2022/01/07 00:27:53;;;;;;;27.40;18.77;;;0.90;1.00;1.90;100745.00;;;;5019766;28;20457;-78
2022/01/07 00:30:25;;;;;;;25.83;17.60;;;1.00;1.00;2.00;100739.00;;;;5021002;28;20481;-76
2022/01/07 00:32:53;;;;;;;25.50;17.20;;;1.00;1.00;52.70;157489.00;;;;5023448;28;20459;-77
2022/01/07 00:35:24;;;;;;;23.90;18.40;;;1.20;1.00;2.00;100722.00;;;;5021570;28;20556;-75
2022/01/07 00:37:52;;;;;;;31.17;18.50;;;1.20;1.00;2.00;100729.00;;;;5020412;28;20475;-76
2022/01/07 00:40:24;;;;;;;29.73;17.60;;;1.00;1.00;2.00;100722.00;;;;5020472;28;20477;-77
2022/01/07 00:42:54;;;;;;;28.07;16.80;;;0.90;1.00;2.00;100723.00;;;;5022387;28;20908;-78
2022/01/07 00:45:24;;;;;;;24.33;16.67;;;0.90;1.00;2.00;66694.00;;;;5030060;28;20495;-78
2022/01/07 00:47:55;;;;;;;27.87;17.23;;;0.90;1.00;2.00;100725.00;;;;5047392;28;20459;-78
2022/01/07 00:50:28;;;;;;;26.17;16.67;;;0.80;1.00;1.90;100727.00;;;;5028199;28;20473;-78
2022/01/07 00:52:57;;;;;;;31.43;16.10;;;0.90;1.00;2.00;100721.00;;;;5047961;28;20468;-79
2022/01/07 00:55:26;;;;;;;27.60;16.40;;;1.00;1.00;2.00;100731.00;;;;5048650;28;20446;-77
2022/01/07 00:57:56;;;;;;;26.27;16.07;;;1.20;1.00;217.30;157527.00;;;;5044582;28;20533;-77
2022/01/07 01:00:27;;;;;;;23.73;17.87;;;1.20;1.00;2.00;66702.00;;;;5043340;28;20461;-78
2022/01/07 01:02:57;;;;;;;30.63;17.90;;;1.10;1.00;217.30;157543.00;;;;5031824;28;21167;-78
2022/01/07 01:05:28;;;;;;;29.10;18.47;;;1.00;1.00;2.10;66711.00;;;;5024647;28;20485;-78
2022/01/07 01:07:58;;;;;;;24.53;16.57;;;1.10;1.00;2.10;66726.00;;;;5027557;28;20463;-79
2022/01/07 01:10:27;;;;;;;28.30;16.67;;;1.10;1.00;2.20;100709.00;;;;5023046;28;20474;-77
2022/01/07 01:12:57;;;;;;;26.70;16.80;;;1.20;1.00;52.70;157634.00;;;;5025471;28;20459;-79
2022/01/07 01:15:27;;;;;;;25.00;16.43;;;1.20;1.00;217.30;157614.00;;;;5027217;28;20454;-78
2022/01/07 01:17:59;;;;;;;24.57;16.10;;;1.20;1.00;2.30;66753.00;;;;5034575;28;20474;-79
2022/01/07 01:20:31;;;;;;;24.13;15.50;;;1.30;1.00;217.30;157670.00;;;;5020348;28;20485;-79
2022/01/07 01:22:59;;;;;;;31.30;16.33;;;1.40;1.00;2.50;66803.00;;;;5036504;28;20467;-79
2022/01/07 01:25:28;;;;;;;21.87;16.20;;;1.60;1.00;2.60;100692.00;;;;5021379;28;20473;-79
2022/01/07 01:27:56;;;;;;;25.67;14.80;;;1.70;1.00;2.50;100713.00;;;;5019043;28;20467;-78
2022/01/07 01:30:28;;;;;;;24.80;16.00;;;1.60;1.00;2.60;66840.00;;;;5027457;28;20480;-80
2022/01/07 01:32:57;;;;;;;22.03;16.40;;;1.80;1.00;2.70;66850.00;;;;5030887;28;20459;-79
2022/01/07 01:35:25;;;;;;;22.80;13.70;;;1.90;1.00;2.70;100683.00;;;;5031840;28;20464;-78
2022/01/07 01:37:55;;;;;;;22.77;15.50;;;1.90;1.00;2.70;100708.00;;;;5031696;28;20517;-79
2022/01/07 01:40:24;;;;;;;22.47;14.47;;;1.80;1.00;2.80;100690.00;;;;5032302;28;20491;-80
2022/01/07 01:42:53;;;;;;;22.57;14.90;;;2.00;1.00;2.80;100699.00;;;;5041169;28;20453;-79
2022/01/07 01:45:23;;;;;;;18.87;13.83;;;2.10;1.00;2.80;66863.00;;;;5027717;28;20457;-79
2022/01/07 01:47:53;;;;;;;20.90;13.33;;;2.10;1.00;2.80;100691.00;;;;5021150;28;20457;-79
2022/01/07 01:50:23;;;;;;;23.63;14.37;;;2.00;1.00;2.70;100695.00;;;;5019819;28;20879;-79
2022/01/07 01:52:56;;;;;;;23.60;15.10;;;1.90;1.00;2.70;100694.00;;;;5022225;28;20456;-80
2022/01/07 01:55:27;;;;;;;25.50;14.90;;;1.80;1.00;2.70;100683.00;;;;5023311;28;20458;-79
2022/01/07 01:57:56;;;;;;;26.83;15.20;;;1.80;1.00;2.70;100689.00;;;;5020681;28;20469;-78
2022/01/07 02:00:27;;;;;;;27.53;15.07;;;1.90;1.00;2.60;100674.00;;;;5016975;28;20481;-78
2022/01/07 02:02:55;;;;;;;21.07;15.53;;;1.80;1.00;2.60;100691.00;;;;5017202;28;20464;-79
2022/01/07 02:05:26;;;;;;;22.63;13.60;;;1.70;1.00;2.60;100686.00;;;;5020643;28;20909;-78
2022/01/07 02:07:56;;;;;;;27.37;15.87;;;1.70;1.00;2.50;100676.00;;;;5019970;28;20475;-79
2022/01/07 02:10:25;;;;;;;27.60;18.13;;;1.70;1.00;2.50;100674.00;;;;5015463;28;20483;-78
2022/01/07 02:12:54;;;;;;;21.37;15.00;;;1.70;1.00;2.60;100678.00;;;;5017669;28;20453;-78
2022/01/07 02:15:22;;;;;;;24.97;15.50;;;1.70;1.00;2.70;100673.00;;;;5017247;28;20871;-79
2022/01/07 02:17:53;;;;;;;26.97;14.50;;;2.00;1.00;2.60;66837.00;;;;5018068;28;20528;-79
2022/01/07 02:20:25;;;;;;;19.40;13.67;;;1.90;1.00;2.60;100645.00;;;;5019075;28;20483;-79
2022/01/07 02:22:54;;;;;;;21.47;14.50;;;2.00;1.00;2.60;100655.00;;;;5024852;28;20456;-79
2022/01/07 02:25:23;;;;;;;21.60;16.00;;;2.00;1.00;217.30;157823.00;;;;5031058;28;20462;-79
2022/01/07 02:27:52;;;;;;;21.30;14.93;;;1.90;1.00;2.70;100645.00;;;;5019110;28;20465;-79
2022/01/07 02:30:23;;;;;;;24.97;14.97;;;2.00;1.00;2.70;100637.00;;;;5031223;28;20881;-79
2022/01/07 02:32:52;;;;;;;25.30;15.17;;;2.00;1.00;2.70;100647.00;;;;5018661;28;20467;-79
2022/01/07 02:35:30;;;;;;;24.23;15.10;;;2.10;1.00;2.80;66869.00;;;;5018978;28;21299;-79
2022/01/07 02:37:59;;;;;;;21.57;15.10;;;2.20;1.00;2.80;66883.00;;;;5017965;28;20457;-79
2022/01/07 02:40:27;;;;;;;26.10;15.63;;;2.10;1.00;2.80;100645.00;;;;5019152;28;20483;-79
2022/01/07 02:42:56;;;;;;;21.77;14.80;;;2.00;1.00;2.80;100625.00;;;;5020687;28;20474;-79
2022/01/07 02:45:25;;;;;;;26.10;14.90;;;1.90;1.00;2.80;100627.00;;;;5019002;28;20949;-77
2022/01/07 02:47:54;;;;;;;17.83;14.10;;;1.90;1.00;2.80;100624.00;;;;5018613;28;20457;-77
2022/01/07 02:50:28;;;;;;;29.37;15.00;;;2.00;1.00;2.80;100628.00;;;;5021548;28;20536;-79
2022/01/07 02:52:57;;;;;;;24.80;15.10;;;2.00;1.00;2.90;66895.00;;;;5029243;28;20459;-77
2022/01/07 02:55:27;;;;;;;25.90;14.20;;;2.10;1.00;3.00;100634.00;;;;5014879;28;20457;-77
2022/01/07 02:57:55;;;;;;;21.83;15.50;;;2.20;1.00;3.00;100626.00;;;;5014161;28;20469;-78
2022/01/07 03:00:25;;;;;;;25.20;15.67;;;2.30;1.00;3.00;100615.00;;;;5030440;28;20687;-78
2022/01/07 03:02:54;;;;;;;23.03;15.17;;;2.30;1.00;217.30;157967.00;;;;5015726;28;20511;-78
2022/01/07 03:05:25;;;;;;;27.57;16.00;;;2.30;1.00;3.10;100613.00;;;;5031018;28;20457;-79
2022/01/07 03:07:53;;;;;;;24.57;16.83;;;2.50;1.00;3.10;100612.00;;;;5016484;28;20469;-78
2022/01/07 03:10:26;;;;;;;25.67;15.07;;;2.70;1.00;3.10;100601.00;;;;5017026;28;20484;-78
2022/01/07 03:12:54;;;;;;;20.87;15.23;;;2.50;1.00;3.10;100598.00;;;;5018191;28;20457;-78
2022/01/07 03:15:24;;;;;;;24.23;15.80;;;2.50;1.00;3.10;100605.00;;;;5014538;28;20457;-78
2022/01/07 03:17:52;;;;;;;20.10;13.90;;;2.40;1.00;3.10;100611.00;;;;5015426;28;20453;-78
2022/01/07 03:20:23;;;;;;;23.57;14.50;;;2.50;1.00;3.20;66955.00;;;;5016627;28;20485;-77
2022/01/07 03:22:52;;;;;;;26.33;15.97;;;2.50;1.00;3.20;100593.00;;;;5013401;28;20464;-77
2022/01/07 03:25:20;;;;;;;21.70;14.30;;;2.50;1.00;3.20;100591.00;;;;5016168;28;20461;-78
2022/01/07 03:27:50;;;;;;;26.23;15.50;;;2.50;1.00;3.20;100579.00;;;;5014659;28;20552;-78
2022/01/07 03:30:19;;;;;;;20.40;14.87;;;2.50;1.00;3.20;100592.00;;;;5018014;28;20487;-79
2022/01/07 03:32:48;;;;;;;24.43;15.03;;;2.50;1.00;3.20;100596.00;;;;5014578;28;20468;-78
2022/01/07 03:35:17;;;;;;;16.90;13.70;;;2.60;1.00;3.20;100583.00;;;;5017189;28;20457;-78
2022/01/07 03:37:49;;;;;;;21.53;14.30;;;2.60;1.00;3.30;100581.00;;;;5017522;28;20464;-79
2022/01/07 03:40:20;;;;;;;24.33;15.10;;;2.60;1.00;3.20;100576.00;;;;5020726;28;20488;-77
2022/01/07 03:42:49;;;;;;;19.10;14.03;;;2.60;1.00;3.20;100570.00;;;;5035950;28;20517;-80
2022/01/07 03:45:20;;;;;;;22.30;15.40;;;2.70;1.00;3.30;100560.00;;;;5035069;28;20610;-78
2022/01/07 03:47:49;;;;;;;22.70;13.80;;;2.70;1.00;3.30;100556.00;;;;5025922;28;20453;-79
2022/01/07 03:50:21;;;;;;;19.10;14.10;;;2.70;1.00;3.30;100553.00;;;;5025664;28;21478;-79
2022/01/07 03:52:51;;;;;;;25.63;14.43;;;2.70;1.00;3.30;100566.00;;;;5030681;28;20467;-79
2022/01/07 03:55:23;;;;;;;19.93;13.83;;;2.70;1.00;3.40;100558.00;;;;5023135;28;20455;-79
2022/01/07 03:57:51;;;;;;;24.70;13.40;;;2.80;1.00;3.40;100558.00;;;;5012779;28;20445;-77
2022/01/07 04:00:23;;;;;;;18.27;13.47;;;2.80;1.00;3.50;67027.00;;;;5018164;28;20477;-77
2022/01/07 04:02:51;;;;;;;24.20;14.20;;;2.90;1.00;217.30;158170.00;;;;5020368;28;20453;-78
2022/01/07 04:05:22;;;;;;;18.20;13.00;;;2.90;1.00;3.50;100554.00;;;;5027582;28;20445;-78
2022/01/07 04:07:52;;;;;;;24.53;13.90;;;2.80;1.00;3.50;67008.00;;;;5024910;28;20460;-78
2022/01/07 04:10:21;;;;;;;23.67;12.97;;;2.90;1.00;3.50;100559.00;;;;5025567;28;20492;-78
2022/01/07 04:12:49;;;;;;;20.80;14.43;;;2.90;1.00;3.50;67025.00;;;;5016913;28;20465;-78
2022/01/07 04:15:18;;;;;;;26.53;14.20;;;2.90;1.00;3.50;100549.00;;;;5018110;28;20469;-78
2022/01/07 04:17:50;;;;;;;25.37;13.47;;;2.90;1.00;3.50;100540.00;;;;5019237;28;20469;-78
2022/01/07 04:20:21;;;;;;;20.57;13.63;;;2.80;1.00;3.40;100545.00;;;;5016385;28;21625;-78
2022/01/07 04:22:52;;;;;;;17.87;12.60;;;2.90;1.00;3.40;100550.00;;;;5022895;28;20795;-78
2022/01/07 04:25:22;;;;;;;21.80;12.77;;;2.90;1.00;3.50;100559.00;;;;5017098;28;20453;-77
2022/01/07 04:27:53;;;;;;;21.57;13.47;;;2.90;1.00;3.40;100563.00;;;;5012689;28;20442;-77
2022/01/07 04:30:23;;;;;;;16.77;12.40;;;2.90;1.00;3.40;67001.00;;;;5014553;28;20489;-78
2022/01/07 04:32:53;;;;;;;23.00;13.20;;;3.00;1.00;3.40;100542.00;;;;5014117;28;20819;-78
2022/01/07 04:35:22;;;;;;;20.40;12.53;;;2.80;1.00;217.30;158138.00;;;;5018470;28;20455;-78
2022/01/07 04:37:52;;;;;;;20.40;12.77;;;2.80;1.00;3.40;100539.00;;;;5018048;28;20461;-76
2022/01/07 04:40:21;;;;;;;20.10;13.50;;;2.80;1.00;3.30;100549.00;;;;5015192;28;20492;-76
2022/01/07 04:42:50;;;;;;;18.40;11.87;;;2.80;1.00;3.40;100537.00;;;;5013883;28;20454;-77
2022/01/07 04:45:19;;;;;;;22.20;14.30;;;2.80;1.00;3.30;100521.00;;;;5019509;28;20453;-76
2022/01/07 04:47:48;;;;;;;18.23;12.57;;;2.80;1.00;3.40;100533.00;;;;5020686;28;20453;-76
2022/01/07 04:50:19;;;;;;;20.93;13.17;;;2.80;1.00;3.30;100519.00;;;;5026025;28;20480;-77
2022/01/07 04:52:48;;;;;;;22.73;14.33;;;2.80;1.00;3.40;100522.00;;;;5032320;28;20569;-77
2022/01/07 04:55:21;;;;;;;17.57;13.60;;;2.90;1.00;3.50;100536.00;;;;5032319;28;20496;-77
2022/01/07 04:57:50;;;;;;;22.13;13.43;;;2.90;1.00;3.50;100533.00;;;;5023022;28;20457;-76
2022/01/07 05:00:21;;;;;;;19.80;13.03;;;2.90;1.00;3.50;100536.00;;;;5020812;28;20481;-77
2022/01/07 05:02:50;;;;;;;23.23;14.17;;;2.90;1.00;3.50;100532.00;;;;5038214;28;20436;-76
2022/01/07 05:05:19;;;;;;;21.90;13.13;;;2.90;1.00;3.60;100541.00;;;;5042786;28;20434;-77
2022/01/07 05:07:47;;;;;;;25.37;14.13;;;3.00;1.00;3.60;100533.00;;;;5039444;28;20453;-76
2022/01/07 05:10:17;;;;;;;23.27;14.07;;;3.00;1.00;3.60;100531.00;;;;5023414;28;20480;-77
2022/01/07 05:12:46;;;;;;;21.53;14.40;;;3.00;1.00;3.60;100519.00;;;;5014139;28;20825;-77
2022/01/07 05:15:16;;;;;;;20.73;13.80;;;3.00;1.00;3.60;100508.00;;;;5014723;28;20524;-77
2022/01/07 05:17:46;;;;;;;19.20;14.40;;;3.10;1.00;3.60;100503.00;;;;5015280;28;20449;-77
2022/01/07 05:20:17;;;;;;;20.57;14.20;;;3.00;1.00;3.60;100512.00;;;;5012924;28;21713;-77
2022/01/07 05:22:46;;;;;;;24.30;14.23;;;3.30;1.00;3.60;100500.00;;;;5013163;28;20974;-77
2022/01/07 05:25:16;;;;;;;24.70;13.13;;;3.30;1.00;3.50;67038.00;;;;5013148;28;20472;-77
2022/01/07 05:27:46;;;;;;;20.77;15.90;;;3.00;1.00;3.60;67046.00;;;;5012709;28;20474;-77
2022/01/07 05:30:15;;;;;;;18.27;12.10;;;3.00;1.00;3.60;100485.00;;;;5016530;28;20469;-76
2022/01/07 05:32:43;;;;;;;19.97;15.40;;;3.00;1.00;3.60;100492.00;;;;5011924;28;20449;-76
2022/01/07 05:35:12;;;;;;;17.47;13.07;;;3.00;1.00;3.60;100492.00;;;;5011530;28;20534;-77
2022/01/07 05:37:40;;;;;;;19.30;13.80;;;3.10;1.00;3.60;100486.00;;;;5014688;28;20496;-77
2022/01/07 05:40:10;;;;;;;20.83;13.60;;;3.20;1.00;3.70;100490.00;;;;5010634;28;20484;-77
2022/01/07 05:42:39;;;;;;;22.63;13.53;;;3.10;1.00;3.70;100481.00;;;;5013578;28;20465;-77
2022/01/07 05:45:10;;;;;;;17.60;13.37;;;3.20;1.00;3.70;100480.00;;;;5029818;28;20487;-77
2022/01/07 05:47:38;;;;;;;18.63;13.47;;;3.20;1.00;3.70;100473.00;;;;5014858;28;20468;-77
2022/01/07 05:50:08;;;;;;;18.97;13.53;;;3.20;1.00;3.70;100471.00;;;;5014822;28;20481;-77
2022/01/07 05:52:37;;;;;;;18.60;13.07;;;3.20;1.00;3.70;100481.00;;;;5012768;28;20977;-78
2022/01/07 05:55:07;;;;;;;21.27;14.60;;;3.40;1.00;3.70;100471.00;;;;5015280;28;20460;-77
2022/01/07 05:57:35;;;;;;;20.33;12.63;;;3.20;1.00;3.70;100465.00;;;;5013983;28;20460;-77
2022/01/07 06:00:08;;;;;;;18.03;12.10;;;3.20;1.00;3.70;100463.00;;;;5011897;28;21431;-76
2022/01/07 06:02:40;;;;;;;18.67;14.90;;;3.30;1.00;3.80;67087.00;;;;5011863;28;20492;-76
2022/01/07 06:05:09;;;;;;;18.00;13.20;;;3.30;1.00;3.80;100471.00;;;;5012412;28;20481;-77
2022/01/07 06:07:38;;;;;;;19.33;11.70;;;3.30;1.00;3.80;100464.00;;;;5012353;28;20460;-77
2022/01/07 06:10:08;;;;;;;16.20;13.33;;;3.30;1.00;3.80;100477.00;;;;5011541;28;20495;-77
2022/01/07 06:12:36;;;;;;;18.40;12.73;;;3.30;1.00;3.80;100462.00;;;;5028668;28;20483;-76
2022/01/07 06:15:05;;;;;;;16.07;11.87;;;3.30;1.00;3.80;100454.00;;;;5030309;28;20457;-77
2022/01/07 06:17:37;;;;;;;13.87;10.77;;;3.30;1.00;3.80;100473.00;;;;5015911;28;20468;-77
2022/01/07 06:20:07;;;;;;;14.20;10.60;;;3.30;1.00;3.80;100459.00;;;;5023095;28;20484;-79
2022/01/07 06:22:35;;;;;;;15.90;11.13;;;3.40;1.00;3.80;67091.00;;;;5028599;28;20519;-77
2022/01/07 06:25:08;;;;;;;15.47;12.07;;;3.30;1.00;3.80;100442.00;;;;5020147;28;20469;-77
2022/01/07 06:27:38;;;;;;;16.63;10.93;;;3.30;1.00;3.80;100434.00;;;;5014490;28;20547;-77
2022/01/07 06:30:09;;;;;;;13.70;10.13;;;3.40;1.00;3.80;67102.00;;;;5015096;28;20501;-77
2022/01/07 06:32:39;;;;;;;14.50;10.83;;;3.30;1.00;3.80;100409.00;;;;5012394;28;20456;-76
2022/01/07 06:35:12;;;;;;;18.30;11.20;;;3.40;1.00;3.80;100440.00;;;;5012880;28;21135;-77
2022/01/07 06:37:41;;;;;;;12.67;9.73;;;3.30;1.00;217.30;158324.00;;;;5013922;28;20464;-77
2022/01/07 06:40:10;;;;;;;20.80;10.73;;;3.30;1.00;3.80;100448.00;;;;5012610;28;20484;-77
2022/01/07 06:42:39;;;;;;;17.57;10.43;;;3.30;1.00;3.80;100436.00;;;;5014122;28;20480;-77
2022/01/07 06:45:08;;;;;;;16.67;10.80;;;3.60;1.00;3.90;100443.00;;;;5015858;28;20460;-78
2022/01/07 06:47:38;;;;;;;14.87;10.87;;;3.40;1.00;3.90;100448.00;;;;5010429;28;20817;-78
2022/01/07 06:50:08;;;;;;;11.43;9.83;;;3.40;1.00;3.90;100445.00;;;;5016974;28;20478;-78
2022/01/07 06:52:37;;;;;;;16.70;11.10;;;3.40;1.00;3.90;100441.00;;;;5020388;28;20466;-78
2022/01/07 06:55:07;;;;;;;11.10;9.53;;;3.40;1.00;217.30;158324.00;;;;5024765;28;20453;-77
2022/01/07 06:57:35;;;;;;;13.37;10.13;;;3.40;1.00;3.90;100440.00;;;;5029044;28;20453;-77
2022/01/07 07:00:04;;;;;;;20.20;11.03;;;3.40;1.00;3.80;100430.00;;;;5037864;28;20477;-78
2022/01/07 07:02:33;;;;;;;25.83;11.27;;;3.30;1.00;3.80;100413.00;;;;5039516;28;20489;-77
2022/01/07 07:05:03;;;;;;;15.47;10.93;;;3.30;1.00;3.80;100417.00;;;;5018566;28;20460;-78
2022/01/07 07:07:32;;;;;;;14.60;10.47;;;3.30;1.00;3.80;67110.00;;;;5012774;28;20454;-78
2022/01/07 07:10:00;;;;;;;17.37;11.13;;;3.40;1.00;3.90;67123.00;;;;5014497;28;21323;-78
2022/01/07 07:12:29;;;;;;;17.73;11.63;;;3.40;1.00;3.90;100437.00;;;;5014394;28;20458;-78
2022/01/07 07:15:00;;;;;;;14.30;11.33;;;3.40;1.00;3.90;100417.00;;;;5013900;28;20453;-79
2022/01/07 07:17:29;;;;;;;16.77;9.87;;;3.40;1.00;217.30;158318.00;;;;5014906;28;20969;-79
2022/01/07 07:19:57;;;;;;;14.83;9.30;;;3.30;1.00;3.80;100452.00;;;;5016201;28;20495;-77
2022/01/07 07:22:27;;;;;;;16.57;10.83;;;3.30;1.00;217.30;158276.00;;;;5015943;28;20497;-79
2022/01/07 07:24:55;;;;;;;14.23;11.70;;;3.20;1.00;3.70;100386.00;;;;5020157;28;20449;-79
2022/01/07 07:27:24;;;;;;;16.57;12.17;;;3.20;1.00;3.60;100435.00;;;;5031510;28;20460;-79
2022/01/07 07:29:52;;;;;;;22.23;12.60;;;3.10;1.00;3.50;100424.00;;;;5029940;28;20480;-79
2022/01/07 07:32:25;;;;;;;18.70;13.13;;;3.10;1.00;3.50;100436.00;;;;5035350;28;20479;-79
2022/01/07 07:35:02;;;;;;;21.40;14.57;;;3.10;1.00;3.40;67001.00;;;;5026102;28;20555;-77
2022/01/07 07:37:33;;;;;;;19.33;13.77;;;3.20;1.00;3.20;100433.00;;;;5021312;28;20462;-77
2022/01/07 07:40:02;;;;;;;25.57;15.20;;;2.80;1.00;3.00;100442.00;;;;5019944;28;21050;-78
2022/01/07 07:42:30;;;;;;;22.40;17.60;;;2.60;1.00;2.90;100432.00;;;;5026097;28;20492;-78
2022/01/07 07:45:00;;;;;;;25.40;18.30;;;2.50;1.00;2.90;100429.00;;;;5042773;28;20449;-78
2022/01/07 07:47:29;;;;;;;27.70;18.97;;;2.70;1.00;2.80;100428.00;;;;5022533;28;21082;-78
2022/01/07 07:49:58;;;;;;;27.87;18.73;;;2.40;1.00;2.80;100416.00;;;;5023037;28;20486;-78
2022/01/07 07:52:26;;;;;;;23.50;17.57;;;2.50;1.00;217.30;157860.00;;;;5008407;28;20473;-78
2022/01/07 07:54:56;;;;;;;25.10;19.53;;;2.40;1.00;2.80;66872.00;;;;5014223;28;20551;-77
2022/01/07 07:57:25;;;;;;;25.30;19.90;;;2.30;1.00;2.90;100466.00;;;;5012562;28;20472;-77
2022/01/07 07:59:53;;;;;;;25.97;19.13;;;2.30;1.00;2.90;100463.00;;;;5011889;28;20496;-77
2022/01/07 08:02:21;;;;;;;26.07;17.50;;;2.40;1.00;2.90;100455.00;;;;5014583;28;20469;-75
2022/01/07 08:04:50;;;;;;;26.73;18.80;;;2.50;1.00;2.80;100440.00;;;;5010292;28;20465;-77
2022/01/07 08:07:18;;;;;;;25.50;17.87;;;2.40;1.00;2.80;100433.00;;;;5012705;28;20456;-76
2022/01/07 08:09:49;;;;;;;29.00;19.20;;;2.40;1.00;2.80;100407.00;;;;5019145;28;20852;-76
2022/01/07 08:12:23;;;;;;;34.63;19.43;;;2.30;1.00;2.70;100412.00;;;;5014226;28;20522;-76
2022/01/07 08:17:37;;;;;;;32.57;21.67;;;2.20;1.00;2.70;100391.00;;;;5012854;28;20544;-77
2022/01/07 08:20:08;;;;;;;27.00;19.60;;;2.20;1.00;217.30;157799.00;;;;5015004;28;20553;-77
2022/01/07 08:22:37;;;;;;;27.80;19.47;;;2.20;1.00;2.70;100412.00;;;;5022521;28;20477;-77
2022/01/07 08:25:07;;;;;;;28.60;20.47;;;2.20;1.00;2.70;100397.00;;;;5018133;28;20492;-78
2022/01/07 08:27:36;;;;;;;25.80;19.50;;;2.30;1.00;2.70;100395.00;;;;5013297;28;20465;-77
2022/01/07 08:30:13;;;;;;;27.13;18.80;;;2.30;1.00;2.80;100387.00;;;;5012095;28;20480;-77
2022/01/07 08:35:29;;;;;;;23.13;17.43;;;2.40;1.00;2.90;100403.00;;;;5011902;28;20464;-78
2022/01/07 08:37:58;;;;;;;25.77;18.40;;;2.50;1.00;3.00;100405.00;;;;5016948;28;20519;-78
2022/01/07 08:40:26;;;;;;;24.27;17.57;;;2.50;1.00;3.00;100396.00;;;;5015249;28;20508;-78
2022/01/07 08:42:56;;;;;;;27.93;18.07;;;2.60;1.00;3.10;100381.00;;;;5014343;28;20484;-77
2022/01/07 08:45:26;;;;;;;24.80;16.77;;;2.60;1.00;3.10;100389.00;;;;5017791;28;20457;-78
2022/01/07 08:47:54;;;;;;;23.63;19.57;;;2.70;1.00;3.20;100376.00;;;;5021813;28;20453;-77
2022/01/07 08:50:23;;;;;;;24.43;17.30;;;2.70;1.00;3.20;100384.00;;;;5018831;28;20495;-77
2022/01/07 08:52:52;;;;;;;24.20;18.20;;;2.80;1.00;3.20;100365.00;;;;5016217;28;20457;-78
2022/01/07 08:55:21;;;;;;;22.33;16.60;;;2.80;1.00;3.20;100370.00;;;;5020061;28;20461;-78
2022/01/07 08:57:49;;;;;;;25.50;17.93;;;2.80;1.00;3.30;100358.00;;;;5016967;28;20540;-80
2022/01/07 09:00:19;;;;;;;25.13;16.50;;;2.80;1.00;3.30;100360.00;;;;5019069;28;20469;-78
2022/01/07 09:02:47;;;;;;;25.70;18.13;;;2.90;1.00;3.30;100339.00;;;;5017061;28;20488;-78
2022/01/07 09:05:16;;;;;;;26.77;17.40;;;2.90;1.00;3.30;100347.00;;;;5016816;28;20526;-78
2022/01/07 09:07:45;;;;;;;22.27;16.10;;;2.80;1.00;217.30;158035.00;;;;5017573;28;20464;-78
2022/01/07 09:10:13;;;;;;;22.60;16.47;;;2.80;1.00;3.20;66961.00;;;;5018216;28;20476;-78
2022/01/07 09:12:41;;;;;;;21.10;17.00;;;2.80;1.00;3.20;100407.00;;;;5020318;28;20465;-78
2022/01/07 09:15:10;;;;;;;23.70;18.50;;;2.80;1.00;3.20;100322.00;;;;5017115;28;20452;-77
2022/01/07 09:17:40;;;;;;;24.03;16.90;;;2.80;1.00;3.20;100401.00;;;;5021358;28;20544;-77
2022/01/07 09:20:10;;;;;;;27.80;17.23;;;2.80;1.00;217.30;158045.00;;;;5015271;28;20472;-78
2022/01/07 09:22:39;;;;;;;24.67;17.53;;;2.80;1.00;3.10;100380.00;;;;5015022;28;21206;-78
2022/01/07 09:25:09;;;;;;;26.53;19.17;;;2.70;1.00;3.10;100386.00;;;;5011961;28;20465;-77
2022/01/07 09:27:38;;;;;;;33.47;22.37;;;2.70;1.00;3.00;100387.00;;;;5018057;28;20460;-78
2022/01/07 09:30:08;;;;;;;28.97;20.30;;;2.60;1.00;2.90;100367.00;;;;5019911;28;20481;-77
2022/01/07 09:32:38;;;;;;;31.97;22.90;;;2.50;1.00;2.90;100373.00;;;;5023922;28;20839;-78
2022/01/07 09:35:08;;;;;;;25.00;19.57;;;2.50;1.00;3.00;100366.00;;;;5031791;28;21006;-78
2022/01/07 09:37:36;;;;;;;25.27;19.00;;;2.50;1.00;3.00;66909.00;;;;5032098;28;20923;-77
2022/01/07 09:40:06;;;;;;;27.27;19.80;;;2.50;1.00;3.00;100399.00;;;;5033869;28;20469;-78
2022/01/07 09:42:34;;;;;;;20.83;16.77;;;2.60;1.00;3.10;100369.00;;;;5033961;28;20481;-78
2022/01/07 09:45:04;;;;;;;28.10;18.73;;;2.60;1.00;3.10;66926.00;;;;5020779;28;20448;-78
2022/01/07 09:47:33;;;;;;;27.80;18.93;;;2.60;1.00;217.30;157967.00;;;;5016763;28;20465;-78
2022/01/07 09:50:10;;;;;;;20.50;14.50;;;2.60;1.00;3.00;100362.00;;;;5020035;28;20473;-79
2022/01/07 09:52:39;;;;;;;23.87;18.07;;;2.60;1.00;3.00;100356.00;;;;5020930;28;20536;-78
2022/01/07 09:55:09;;;;;;;29.17;18.80;;;2.50;1.00;3.10;100348.00;;;;5020144;28;20457;-78
2022/01/07 09:57:38;;;;;;;16.77;12.47;;;2.70;1.00;3.20;100352.00;;;;5025617;28;20476;-78
2022/01/07 10:00:09;;;;;;;24.50;17.80;;;2.70;1.00;52.70;158070.00;;;;5029383;28;20487;-78
2022/01/07 10:03:00;;;;;;;20.90;16.73;;;2.80;1.00;3.40;100353.00;;;;5025376;28;20465;-78
2022/01/07 10:05:31;;;;;;;22.70;17.93;;;2.90;1.00;3.60;100365.00;;;;5030125;28;20461;-78
2022/01/07 10:08:24;;;;;;;20.33;15.40;;;3.00;1.00;3.60;100353.00;;;;5059561;28;20480;-79
2022/01/07 10:11:16;;;;;;;21.00;14.80;;;3.20;1.00;3.70;100331.00;;;;5036507;28;20587;-78
2022/01/07 10:13:47;;;;;;;18.80;16.23;;;3.20;1.00;3.70;100341.00;;;;5026680;28;21009;-78
2022/01/07 10:16:21;;;;;;;20.73;16.77;;;3.30;1.00;3.80;100336.00;;;;5028941;28;20467;-78
2022/01/07 10:18:52;;;;;;;19.60;15.03;;;3.40;1.00;3.80;100341.00;;;;5025913;28;20464;-79
2022/01/07 10:21:23;;;;;;;19.80;15.37;;;3.30;1.00;3.80;100335.00;;;;5020361;28;20444;-79
2022/01/07 10:24:02;;;;;;;21.07;15.00;;;3.50;1.00;3.90;100335.00;;;;5018019;28;20480;-79
2022/01/07 10:26:31;;;;;;;19.63;15.73;;;3.40;1.00;3.90;67123.00;;;;5017107;28;20463;-79
2022/01/07 10:29:00;;;;;;;22.43;17.40;;;3.50;1.00;3.80;67115.00;;;;5033581;28;20798;-83
2022/01/07 10:31:28;;;;;;;22.17;16.00;;;3.50;1.00;217.30;158282.00;;;;5017755;28;20471;-78
2022/01/07 10:34:05;;;;;;;23.47;16.63;;;3.40;1.00;3.60;67054.00;;;;5017486;28;20551;-79
2022/01/07 10:36:40;;;;;;;18.20;13.30;;;3.20;1.00;3.60;67053.00;;;;5017639;28;20463;-79
2022/01/07 10:39:08;;;;;;;21.17;15.83;;;3.20;1.00;3.60;100338.00;;;;5033417;28;20449;-78
2022/01/07 10:41:37;;;;;;;22.30;17.83;;;3.10;1.00;3.60;100340.00;;;;5018531;28;20481;-79
2022/01/07 10:44:08;;;;;;;21.43;16.07;;;3.10;1.00;3.60;100335.00;;;;5016386;28;20485;-80
2022/01/07 10:46:37;;;;;;;18.63;15.60;;;3.10;1.00;3.70;100315.00;;;;5017381;28;20444;-79
2022/01/07 10:49:06;;;;;;;23.97;17.17;;;3.20;1.00;3.70;67075.00;;;;5017770;28;20463;-79
2022/01/07 10:51:43;;;;;;;24.13;17.80;;;3.30;1.00;3.70;67087.00;;;;5021318;28;20441;-80
2022/01/07 10:54:19;;;;;;;22.30;17.90;;;3.30;1.00;3.80;100323.00;;;;5022336;28;20506;-80
2022/01/07 10:56:48;;;;;;;20.33;16.40;;;3.40;1.00;3.80;100250.00;;;;5019148;28;20454;-78
2022/01/07 10:59:18;;;;;;;27.93;16.47;;;3.40;1.00;3.80;67091.00;;;;5026133;28;20472;-78
2022/01/07 11:01:48;;;;;;;21.70;16.50;;;3.40;1.00;3.80;100326.00;;;;5032754;28;20456;-79
2022/01/07 11:04:19;;;;;;;22.70;15.50;;;3.40;1.00;3.80;100341.00;;;;5033995;28;20499;-79
2022/01/07 11:06:51;;;;;;;19.67;16.87;;;3.40;1.00;3.70;100335.00;;;;5057634;28;20472;-80
2022/01/07 11:09:21;;;;;;;19.77;16.50;;;3.30;1.00;3.80;100323.00;;;;5032000;28;20467;-79
2022/01/07 11:11:52;;;;;;;22.93;16.60;;;3.40;1.00;3.90;100330.00;;;;5030099;28;20975;-79